Time;durP1;ratioP1;P1;durP2;ratioP2;P2;SDS_P1;SDS_P2;PMS_P1;PMS_P2;Temp;Humidity;BMP_temperature;BMP_pressure;BME280_temperature;BME280_humidity;BME280_pressure;Samples;Min_cycle;Max_cycle;Signal;HPM_P1;HPM_P2
2022/07/06 00:00:18;;;;;;;172.35;21.77;;;;;;;30.58;47.39;101060.81;4148398;28;20053;-59
2022/07/06 00:02:22;;;;;;;170.77;20.83;;;;;;;30.56;47.55;101060.31;4148875;28;20088;-59
2022/07/06 00:04:23;;;;;;;153.35;20.02;;;;;;;30.55;47.41;101053.84;4148720;28;20042;-59
2022/07/06 00:06:27;;;;;;;275.27;31.35;;;;;;;30.57;47.68;101056.34;4148732;28;20092;-58
2022/07/06 00:08:29;;;;;;;355.17;48.15;;;;;;;30.64;47.91;101054.59;4148310;28;20481;-58
2022/07/06 00:10:30;;;;;;;432.13;52.92;;;;;;;30.64;48.17;101054.59;4143519;28;20572;-59
2022/07/06 00:12:31;;;;;;;341.20;42.92;;;;;;;30.66;48.50;101054.28;4132835;28;20097;-59
2022/07/06 00:14:36;;;;;;;286.48;34.00;;;;;;;30.60;48.19;101050.00;4135138;28;20539;-59
2022/07/06 00:16:40;;;;;;;211.68;31.30;;;;;;;30.65;48.16;101058.25;4149169;28;20485;-59
2022/07/06 00:18:45;;;;;;;277.13;35.78;;;;;;;30.64;48.10;101050.97;4148894;28;20042;-59
2022/07/06 00:20:46;;;;;;;202.98;28.02;;;;;;;30.63;48.20;101047.31;4149022;28;20100;-59
2022/07/06 00:22:48;;;;;;;138.32;24.55;;;;;;;30.66;48.24;101047.81;4148771;28;20049;-58
2022/07/06 00:24:49;;;;;;;173.02;25.60;;;;;;;30.63;48.15;101041.66;4148888;28;20046;-59
2022/07/06 00:26:50;;;;;;;158.07;23.48;;;;;;;30.59;48.31;101039.88;4148730;28;20458;-59
2022/07/06 00:28:54;;;;;;;155.07;23.15;;;;;;;30.61;48.20;101046.03;4148283;28;20042;-59
2022/07/06 00:30:59;;;;;;;145.25;21.23;;;;;;;30.57;48.30;101039.41;4148641;28;20042;-59
2022/07/06 00:33:03;;;;;;;101.35;19.08;;;;;;;30.63;48.35;101054.97;4148526;28;20420;-59
2022/07/06 00:35:05;;;;;;;121.65;22.10;;;;;;;30.63;48.45;101060.63;4148804;28;20038;-59
2022/07/06 00:37:07;;;;;;;114.60;18.52;;;;;;;30.64;48.38;101062.25;4148542;28;20033;-59
2022/07/06 00:39:08;;;;;;;119.25;21.92;;;;;;;30.64;48.34;101062.25;4148448;28;20041;-59
2022/07/06 00:41:09;;;;;;;83.88;16.45;;;;;;;30.62;48.49;101056.13;4148364;28;20075;-59
2022/07/06 00:43:13;;;;;;;67.45;15.07;;;;;;;30.62;48.50;101048.50;4148446;28;20091;-59
2022/07/06 00:45:22;;;;;;;74.05;15.25;;;;;;;30.62;48.77;101053.31;4148446;28;20165;-58
2022/07/06 00:47:23;;;;;;;69.43;14.00;;;;;;;30.61;48.92;101046.03;4148586;28;20042;-58
2022/07/06 00:51:45;;;;;;;61.58;13.95;;;;;;;30.62;48.54;101058.97;4148720;28;20180;-58
2022/07/06 00:53:46;;;;;;;56.88;13.13;;;;;;;30.61;48.16;101054.50;4147884;28;20112;-58
2022/07/06 00:55:49;;;;;;;57.17;14.02;;;;;;;30.63;48.65;101057.78;4148011;28;20473;-58
2022/07/06 00:57:51;;;;;;;42.85;11.93;;;;;;;30.61;48.68;101058.16;4147999;28;20552;-58
2022/07/06 00:59:52;;;;;;;49.83;13.48;;;;;;;30.63;49.03;101054.97;4147709;28;20104;-58
2022/07/06 01:01:54;;;;;;;51.00;12.95;;;;;;;30.54;48.68;101040.09;4147887;28;20037;-58
2022/07/06 01:03:55;;;;;;;54.45;13.00;;;;;;;30.61;48.91;101046.84;4148105;28;20033;-58
2022/07/06 01:05:57;;;;;;;59.38;14.18;;;;;;;30.63;48.61;101061.44;4147958;28;20104;-58
2022/07/06 01:08:04;;;;;;;48.97;13.07;;;;;;;30.63;48.74;101057.78;4147650;28;20453;-58
2022/07/06 01:10:10;;;;;;;35.83;10.93;;;;;;;30.58;48.48;101046.69;4147152;28;20042;-59
2022/07/06 01:12:14;;;;;;;41.83;11.75;;;;;;;30.60;48.77;101059.28;4147796;28;20053;-59
2022/07/06 01:14:19;;;;;;;42.72;11.15;;;;;;;30.65;48.58;101063.91;4147868;28;20042;-58
2022/07/06 01:16:20;;;;;;;;;;;;;;;30.63;48.47;101072.72;4148008;28;20041;-60
2022/07/06 01:18:24;;;;;;;37.58;10.70;;;;;;;30.69;48.65;101064.88;4147616;28;19972;-59
2022/07/06 01:20:29;;;;;;;34.83;10.23;;;;;;;30.62;48.50;101053.31;4147487;28;20370;-59
2022/07/06 01:22:33;;;;;;;39.45;11.35;;;;;;;30.58;48.57;101058.00;4147733;28;20104;-58
2022/07/06 01:24:38;;;;;;;44.30;11.27;;;;;;;30.68;48.65;101079.34;4147853;28;20513;-60
2022/07/06 01:26:40;;;;;;;41.55;11.70;;;;;;;30.66;48.71;101084.53;4147941;28;20030;-59
2022/07/06 01:28:42;;;;;;;38.53;10.60;;;;;;;30.65;48.73;101083.69;4147568;28;20042;-59
2022/07/06 01:30:43;;;;;;;34.22;10.85;;;;;;;30.64;48.93;101084.84;4147738;28;20469;-59
2022/07/06 01:32:45;;;;;;;38.40;11.23;;;;;;;30.62;48.81;101090.03;4147990;28;20061;-58
2022/07/06 01:34:47;;;;;;;28.35;9.13;;;;;;;30.64;48.96;101096.16;4148033;28;20096;-59
2022/07/06 01:36:48;;;;;;;29.02;10.85;;;;;;;30.59;48.57;101085.06;4147648;28;20088;-60
2022/07/06 01:38:54;;;;;;;37.85;11.07;;;;;;;30.63;48.89;101094.50;4147359;28;20029;-59
2022/07/06 01:40:56;;;;;;;33.05;11.63;;;;;;;30.64;48.61;101090.50;4147290;28;20058;-61
2022/07/06 01:42:57;;;;;;;27.08;10.07;;;;;;;30.64;48.69;101096.16;4146453;28;20049;-59
2022/07/06 01:45:03;;;;;;;21.77;9.15;;;;;;;30.64;48.75;101107.44;4147491;28;20100;-64
2022/07/06 01:47:04;;;;;;;26.48;10.50;;;;;;;30.63;48.75;101098.16;4147393;28;20038;-58
2022/07/06 01:49:06;;;;;;;29.55;10.98;;;;;;;30.62;48.83;101096.50;4147030;28;20042;-60
2022/07/06 01:51:07;;;;;;;28.48;10.00;;;;;;;30.55;48.92;101075.63;4146556;28;20107;-59
2022/07/06 01:53:08;;;;;;;24.13;8.82;;;;;;;30.62;49.01;101087.22;4147994;28;20037;-58
2022/07/06 01:55:12;;;;;;;30.27;9.60;;;;;;;30.62;48.97;101092.84;4147292;28;20046;-59
2022/07/06 01:57:17;;;;;;;24.08;9.40;;;;;;;30.55;48.81;101081.28;4147973;28;20042;-59
2022/07/06 01:59:18;;;;;;;25.45;8.95;;;;;;;30.63;48.92;101100.97;4146807;28;20046;-59
2022/07/06 02:01:23;;;;;;;24.15;8.75;;;;;;;30.59;49.03;101093.53;4147533;28;20077;-58
2022/07/06 02:03:24;;;;;;;;;;;;;;;30.62;49.01;101101.34;4148061;28;20038;-59
2022/07/06 02:05:25;;;;;;;23.00;9.32;;;;;;;30.68;48.62;101096.28;4147651;28;19960;-60
2022/07/06 02:07:32;;;;;;;19.90;9.38;;;;;;;30.61;48.36;101082.75;4147765;28;20054;-60
2022/07/06 02:09:33;;;;;;;26.92;9.60;;;;;;;30.67;48.70;101077.69;4146620;28;20108;-60
2022/07/06 02:11:40;;;;;;;21.92;8.65;;;;;;;30.65;48.73;101080.84;4147666;28;20111;-60
2022/07/06 02:13:41;;;;;;;21.65;8.07;;;;;;;30.64;48.83;101079.22;4147444;28;20422;-59
2022/07/06 02:15:43;;;;;;;20.42;8.18;;;;;;;30.62;49.17;101058.97;4147757;28;20038;-60
2022/07/06 02:17:44;;;;;;;18.83;8.23;;;;;;;30.60;48.92;101061.28;4146619;28;20038;-59
2022/07/06 02:19:48;;;;;;;21.17;7.88;;;;;;;30.63;48.96;101060.63;4147528;28;20034;-59
2022/07/06 02:21:52;;;;;;;16.65;8.15;;;;;;;30.63;48.70;101060.63;4149092;28;20077;-58
2022/07/06 02:23:54;;;;;;;24.23;8.27;;;;;;;30.62;48.93;101056.13;4150674;28;20088;-59
2022/07/06 02:25:58;;;;;;;17.00;8.18;;;;;;;30.61;49.19;101057.31;4150458;28;20046;-60
2022/07/06 02:27:59;;;;;;;14.38;8.18;;;;;;;30.62;49.10;101053.31;4150493;28;20436;-60
2022/07/06 02:30:01;;;;;;;15.77;8.38;;;;;;;30.62;49.23;101042.03;4150815;28;20034;-59
2022/07/06 02:32:02;;;;;;;14.20;8.15;;;;;;;30.62;49.08;101039.19;4150786;28;20038;-59
2022/07/06 02:34:04;;;;;;;15.40;7.75;;;;;;;30.59;49.22;101031.41;4150810;28;20120;-59
2022/07/06 02:36:08;;;;;;;19.65;8.07;;;;;;;30.61;49.24;101023.44;4150375;28;20042;-59
2022/07/06 02:38:10;;;;;;;19.42;8.73;;;;;;;30.60;49.04;101019.75;4150496;28;20045;-60
2022/07/06 02:40:17;;;;;;;17.83;9.18;;;;;;;30.59;49.31;101011.63;4150684;28;20421;-59
2022/07/06 02:42:19;;;;;;;14.73;8.65;;;;;;;30.61;49.03;101006.47;4150545;28;20046;-59
2022/07/06 02:44:20;;;;;;;15.68;9.63;;;;;;;30.52;48.83;100980.31;4150144;28;20042;-59
2022/07/06 02:46:21;;;;;;;17.73;8.35;;;;;;;30.58;49.13;101002.34;4149849;28;20046;-60
2022/07/06 02:48:23;;;;;;;17.42;7.95;;;;;;;30.59;48.95;101009.63;4149615;28;20034;-59
2022/07/06 02:50:25;;;;;;;17.45;8.25;;;;;;;30.60;49.23;101007.63;4150173;28;20077;-59
2022/07/06 02:52:29;;;;;;;13.77;7.43;;;;;;;30.58;49.07;101008.00;4149814;28;20104;-59
2022/07/06 02:54:36;;;;;;;20.45;8.15;;;;;;;30.58;49.11;101002.34;4149991;28;20038;-59
2022/07/06 02:56:37;;;;;;;13.38;6.85;;;;;;;30.60;49.04;101001.97;4149801;28;20096;-59
2022/07/06 02:58:39;;;;;;;15.95;7.63;;;;;;;30.60;49.23;101004.81;4149146;28;20544;-59
2022/07/06 03:00:40;;;;;;;12.73;7.13;;;;;;;30.46;49.12;100973.22;4150042;28;20084;-59
2022/07/06 03:02:41;;;;;;;12.75;7.07;;;;;;;30.58;49.47;100984.56;4149907;28;20092;-59
2022/07/06 03:04:43;;;;;;;18.52;6.95;;;;;;;30.58;48.97;100988.22;4149927;28;20037;-59
2022/07/06 03:06:44;;;;;;;15.25;6.75;;;;;;;30.58;49.37;100991.03;4149571;28;20042;-59
2022/07/06 03:08:45;;;;;;;11.30;7.03;;;;;;;30.58;49.41;100987.41;4149253;28;20042;-59
2022/07/06 03:10:47;;;;;;;12.50;6.65;;;;;;;30.54;49.29;100989.25;4149597;28;20080;-58
2022/07/06 03:12:51;;;;;;;13.00;6.40;;;;;;;30.57;48.82;100992.22;4149828;28;20042;-59
2022/07/06 03:14:52;;;;;;;14.02;8.60;;;;;;;30.57;49.20;100985.75;4149117;28;20108;-58
2022/07/06 03:16:54;;;;;;;12.93;7.05;;;;;;;30.57;49.07;100974.44;4150025;28;20554;-58
2022/07/06 03:18:55;;;;;;;12.68;7.70;;;;;;;30.56;49.03;100979.28;4149378;28;20104;-58
2022/07/06 03:20:56;;;;;;;11.68;6.35;;;;;;;30.49;49.51;100969.72;4149188;28;20042;-58
2022/07/06 03:22:58;;;;;;;13.88;6.15;;;;;;;30.55;49.17;100986.06;4149827;28;20470;-59
2022/07/06 03:25:02;;;;;;;12.80;6.20;;;;;;;30.55;49.15;100979.59;4149951;28;20520;-59
2022/07/06 03:27:06;;;;;;;12.02;6.68;;;;;;;30.48;49.30;100970.88;4149290;28;20096;-59
2022/07/06 03:29:11;;;;;;;10.60;6.70;;;;;;;30.55;49.31;100980.44;4149007;28;20092;-59
2022/07/06 03:31:15;;;;;;;13.90;6.95;;;;;;;30.55;49.48;100979.59;4149613;28;20092;-59
2022/07/06 03:33:16;;;;;;;10.77;6.20;;;;;;;30.56;49.15;100986.91;4148312;28;20029;-59
2022/07/06 03:35:18;;;;;;;12.27;6.93;;;;;;;30.57;49.30;100994.22;4149155;28;20516;-59
2022/07/06 03:37:19;;;;;;;12.00;6.32;;;;;;;30.55;49.39;100976.78;4149822;28;20100;-59
2022/07/06 03:39:20;;;;;;;8.70;4.75;;;;;;;30.55;49.29;100977.59;4149177;28;20041;-59
2022/07/06 03:41:21;;;;;;;7.30;5.35;;;;;;;30.55;49.34;100980.44;4149522;28;20026;-59
2022/07/06 03:43:23;;;;;;;9.60;5.97;;;;;;;30.55;49.26;100973.97;4149626;28;20046;-59
2022/07/06 03:45:24;;;;;;;12.40;6.05;;;;;;;30.53;48.93;100977.13;4149545;28;20461;-59
2022/07/06 03:47:26;;;;;;;11.25;5.95;;;;;;;30.53;49.40;100987.63;4149014;28;20042;-59
2022/07/06 03:49:27;;;;;;;13.95;6.05;;;;;;;30.53;49.23;100981.97;4148294;28;20038;-58
2022/07/06 03:51:29;;;;;;;7.22;5.28;;;;;;;30.54;49.22;100984.44;4148599;28;20417;-60
2022/07/06 03:53:31;;;;;;;8.70;5.80;;;;;;;30.53;49.16;100985.59;4148188;28;20095;-59
2022/07/06 03:55:32;;;;;;;8.13;5.78;;;;;;;30.54;49.39;100983.59;4148490;28;20100;-59
2022/07/06 03:57:33;;;;;;;9.65;5.85;;;;;;;30.49;49.47;100975.34;4148750;28;20045;-59
2022/07/06 03:59:40;;;;;;;9.43;5.35;;;;;;;30.53;49.30;100982.78;4148957;28;20034;-59
2022/07/06 04:01:42;;;;;;;8.50;5.30;;;;;;;30.53;49.36;100982.78;4149064;28;20433;-58
2022/07/06 04:03:44;;;;;;;11.43;5.57;;;;;;;30.53;49.64;100976.31;4148348;28;20100;-59
2022/07/06 04:05:51;;;;;;;9.38;5.22;;;;;;;30.46;49.28;100971.22;4148705;28;20050;-58
2022/07/06 04:07:55;;;;;;;9.05;6.47;;;;;;;30.52;49.28;100980.31;4148760;28;20096;-59
2022/07/06 04:09:59;;;;;;;9.45;5.63;;;;;;;30.53;49.37;100970.66;4149002;28;20432;-59
2022/07/06 04:12:00;;;;;;;7.15;5.28;;;;;;;30.52;49.36;100969.03;4148553;28;20050;-59
2022/07/06 04:14:01;;;;;;;9.38;5.20;;;;;;;30.53;49.04;100959.38;4146808;28;20505;-59
2022/07/06 04:16:03;;;;;;;11.18;5.25;;;;;;;30.28;49.19;100918.91;4148363;28;20076;-59
2022/07/06 04:18:04;;;;;;;10.10;5.55;;;;;;;30.50;49.17;100957.22;4148322;28;20050;-59
2022/07/06 04:20:06;;;;;;;10.23;5.15;;;;;;;30.52;49.16;100957.72;4148397;28;20685;-59
2022/07/06 04:22:08;;;;;;;7.75;5.68;;;;;;;30.52;48.75;100966.19;4148609;28;20050;-59
2022/07/06 04:24:09;;;;;;;8.82;5.45;;;;;;;30.50;49.10;100965.69;4148746;28;20042;-60
2022/07/06 04:26:11;;;;;;;9.93;5.47;;;;;;;30.50;49.35;100966.53;4148370;28;20049;-60
2022/07/06 04:28:13;;;;;;;14.05;8.15;;;;;;;30.50;49.37;100972.16;4148039;28;20607;-59
2022/07/06 04:30:14;;;;;;;26.58;15.38;;;;;;;30.49;49.45;100964.06;4148493;28;20045;-59
2022/07/06 04:32:15;;;;;;;28.70;18.23;;;;;;;30.48;49.18;100968.06;4148379;28;20042;-59
2022/07/06 04:34:16;;;;;;;32.20;21.92;;;;;;;30.48;49.13;100968.06;4148590;28;20041;-58
2022/07/06 04:36:18;;;;;;;37.92;24.13;;;;;;;30.47;48.96;100958.78;4148521;28;20095;-59
2022/07/06 04:38:19;;;;;;;29.80;19.45;;;;;;;30.48;48.91;100956.75;4148253;28;20041;-59
2022/07/06 04:40:23;;;;;;;27.20;16.38;;;;;;;30.44;49.06;100944.50;4148563;28;20038;-59
2022/07/06 04:42:25;;;;;;;24.05;16.25;;;;;;;30.47;49.11;100943.78;4148093;28;20444;-58
2022/07/06 04:44:26;;;;;;;25.67;16.15;;;;;;;30.41;49.00;100942.38;4148390;28;20042;-58
2022/07/06 04:46:30;;;;;;;24.85;15.63;;;;;;;30.47;49.21;100958.78;4148689;28;20034;-58
2022/07/06 04:48:36;;;;;;;22.30;14.70;;;;;;;30.47;49.25;100955.94;4148261;28;20487;-58
2022/07/06 04:50:37;;;;;;;19.42;12.95;;;;;;;30.47;49.17;100953.13;4148380;28;20067;-58
2022/07/06 04:52:38;;;;;;;21.85;14.25;;;;;;;30.47;49.25;100946.63;4148284;28;20034;-58
2022/07/06 04:54:40;;;;;;;25.98;15.50;;;;;;;30.46;49.41;100947.78;4148587;28;20033;-58
2022/07/06 04:56:41;;;;;;;24.15;16.30;;;;;;;30.45;49.26;100954.63;4148479;28;20140;-58
2022/07/06 04:58:42;;;;;;;23.10;16.40;;;;;;;30.45;49.08;100941.31;4147671;28;20482;-58
2022/07/06 05:00:44;;;;;;;22.80;15.80;;;;;;;30.45;49.20;100946.97;4148255;28;20042;-58
2022/07/06 05:02:54;;;;;;;22.08;15.07;;;;;;;30.45;49.15;100944.16;4147945;28;20076;-59
2022/07/06 05:04:56;;;;;;;22.02;13.50;;;;;;;30.43;49.28;100937.22;4148200;28;20037;-59
2022/07/06 05:06:57;;;;;;;22.42;14.18;;;;;;;30.45;49.19;100946.16;4148574;28;20092;-59
2022/07/06 05:09:03;;;;;;;20.00;13.18;;;;;;;30.44;49.28;100947.34;4148080;28;20049;-59
2022/07/06 05:11:05;;;;;;;20.15;13.52;;;;;;;30.44;49.15;100950.97;4148490;28;20050;-59
2022/07/06 05:13:06;;;;;;;18.90;12.00;;;;;;;30.44;48.78;100950.16;4148196;28;20096;-59
2022/07/06 05:15:17;;;;;;;17.83;12.43;;;;;;;30.42;48.97;100952.47;4148225;28;20037;-59
2022/07/06 05:17:18;;;;;;;13.40;10.15;;;;;;;30.44;49.22;100967.09;4148545;28;20039;-59
2022/07/06 05:19:19;;;;;;;17.73;10.27;;;;;;;30.44;48.87;100962.28;4148093;28;20462;-59
2022/07/06 05:21:21;;;;;;;13.93;10.80;;;;;;;30.44;48.83;100961.44;4148365;28;20038;-60
2022/07/06 05:23:22;;;;;;;13.85;10.10;;;;;;;30.44;49.21;100967.09;4148356;28;20088;-60
2022/07/06 05:25:24;;;;;;;13.68;9.60;;;;;;;30.43;49.20;100962.63;4148061;28;20432;-59
2022/07/06 05:27:28;;;;;;;17.45;10.10;;;;;;;30.36;49.23;100951.88;4147234;28;20038;-59
2022/07/06 05:29:29;;;;;;;13.90;9.75;;;;;;;30.43;49.14;100954.16;4147862;28;20469;-59
2022/07/06 05:31:30;;;;;;;13.93;9.65;;;;;;;30.42;49.23;100958.94;4150089;28;20108;-59
2022/07/06 05:33:32;;;;;;;14.32;9.80;;;;;;;30.43;49.27;100959.81;4148033;28;20088;-59
2022/07/06 05:35:34;;;;;;;16.15;9.85;;;;;;;30.42;49.03;100963.78;4147344;28;20119;-62
2022/07/06 05:37:40;;;;;;;12.75;9.73;;;;;;;30.38;48.98;100953.19;4147675;28;20112;-60
2022/07/06 05:39:45;;;;;;;12.07;8.18;;;;;;;30.42;49.21;100946.84;4147712;28;20435;-59
2022/07/06 05:41:46;;;;;;;12.85;8.77;;;;;;;30.42;49.10;100958.94;4147535;28;20122;-60
2022/07/06 05:43:50;;;;;;;12.05;8.73;;;;;;;30.42;49.20;100949.66;4147696;28;20034;-60
2022/07/06 05:45:51;;;;;;;17.42;9.90;;;;;;;30.35;49.37;100934.13;4147732;28;20100;-60
2022/07/06 05:50:13;;;;;;;12.30;9.52;;;;;;;30.42;49.29;100935.53;4148837;28;20093;-60
2022/07/06 05:52:17;;;;;;;12.77;8.35;;;;;;;30.42;49.51;100938.38;4147476;28;20092;-59
2022/07/06 05:54:21;;;;;;;13.10;8.32;;;;;;;30.41;49.39;100942.38;4147744;28;20096;-59
2022/07/06 05:56:23;;;;;;;13.32;8.48;;;;;;;30.40;49.36;100944.38;4148751;28;20038;-59
2022/07/06 05:58:25;;;;;;;11.52;6.97;;;;;;;30.40;49.22;100944.38;4150379;28;20112;-59
2022/07/06 06:00:27;;;;;;;12.55;8.00;;;;;;;30.40;48.98;100938.72;4150713;28;20042;-60
2022/07/06 06:02:56;;;;;;;10.40;7.70;;;;;;;30.38;49.10;100947.53;4150366;28;20107;-59
2022/07/06 06:04:58;;;;;;;13.90;7.95;;;;;;;30.40;49.03;100935.06;4150090;28;20116;-60
2022/07/06 06:06:59;;;;;;;11.80;7.82;;;;;;;30.37;48.99;100928.13;4151022;28;20088;-59
2022/07/06 06:09:03;;;;;;;12.95;7.50;;;;;;;30.38;48.97;100930.59;4150528;28;20042;-59
2022/07/06 06:11:04;;;;;;;10.55;7.32;;;;;;;30.39;49.19;100937.06;4150342;28;20053;-60
2022/07/06 06:13:05;;;;;;;10.23;7.07;;;;;;;30.39;48.67;100942.72;4151086;28;20536;-59
2022/07/06 06:15:08;;;;;;;11.98;6.90;;;;;;;30.38;49.03;100936.25;4150662;28;20034;-59
2022/07/06 06:17:12;;;;;;;8.57;6.80;;;;;;;30.38;48.62;100935.44;4150454;28;20485;-59
2022/07/06 06:19:13;;;;;;;10.03;6.70;;;;;;;30.36;48.18;100924.47;4150630;28;20440;-59
2022/07/06 06:21:14;;;;;;;12.50;7.07;;;;;;;30.35;48.68;100930.47;4150822;28;20101;-59
2022/07/06 06:23:19;;;;;;;10.02;6.25;;;;;;;30.36;48.79;100932.94;4150577;28;20099;-59
2022/07/06 06:25:40;;;;;;;10.30;6.47;;;;;;;30.33;47.97;100933.66;4150651;28;20021;-60
2022/07/06 06:27:41;;;;;;;9.05;6.55;;;;;;;30.36;48.09;100935.75;4150276;28;20038;-59
2022/07/06 06:29:44;;;;;;;9.05;6.20;;;;;;;30.35;48.07;100930.47;4149863;28;20478;-60
2022/07/06 06:31:45;;;;;;;10.20;6.70;;;;;;;30.35;48.00;100925.66;4150257;28;20046;-60
2022/07/06 06:33:46;;;;;;;8.70;6.57;;;;;;;30.34;48.42;100918.34;4150136;28;20092;-60
2022/07/06 06:35:52;;;;;;;10.88;7.47;;;;;;;30.34;48.52;100918.34;4150420;28;20096;-60
2022/07/06 06:37:53;;;;;;;9.82;7.78;;;;;;;30.33;48.93;100913.88;4150543;28;20103;-59
2022/07/06 06:39:54;;;;;;;10.93;6.50;;;;;;;30.33;48.80;100915.84;4150367;28;20092;-59
2022/07/06 06:41:56;;;;;;;9.48;6.43;;;;;;;30.34;48.86;100921.19;4149819;28;20045;-59
2022/07/06 06:44:00;;;;;;;9.00;6.63;;;;;;;30.33;48.71;100905.41;4149898;28;20548;-59
2022/07/06 06:46:01;;;;;;;8.18;6.50;;;;;;;30.32;48.74;100898.09;4149906;28;20482;-58
2022/07/06 06:48:09;;;;;;;10.68;6.55;;;;;;;30.34;48.63;100892.13;4149625;28;20544;-59
2022/07/06 06:50:10;;;;;;;9.15;6.50;;;;;;;30.33;48.92;100893.28;4150065;28;20054;-59
2022/07/06 06:52:11;;;;;;;10.68;6.47;;;;;;;30.28;48.88;100885.84;4149415;28;20053;-59
2022/07/06 06:54:15;;;;;;;12.55;7.13;;;;;;;30.31;48.98;100890.81;4150133;28;20046;-59
2022/07/06 06:56:17;;;;;;;9.43;6.47;;;;;;;30.31;49.08;100896.44;4149601;28;20112;-59
2022/07/06 06:58:18;;;;;;;8.35;6.38;;;;;;;30.31;49.06;100902.09;4149057;28;20108;-59
2022/07/06 07:00:20;;;;;;;8.68;6.60;;;;;;;30.33;49.11;100899.78;4149929;28;20050;-60
2022/07/06 07:02:21;;;;;;;8.38;5.60;;;;;;;30.33;49.00;100899.78;4149469;28;20050;-59
2022/07/06 07:04:23;;;;;;;9.63;6.07;;;;;;;30.31;49.09;100899.28;4150238;28;20100;-59
2022/07/06 07:06:27;;;;;;;8.48;6.00;;;;;;;30.32;48.98;100902.91;4149605;28;20046;-59
2022/07/06 07:08:28;;;;;;;6.93;5.68;;;;;;;30.31;48.29;100896.44;4148107;28;20104;-59
2022/07/06 07:10:30;;;;;;;11.25;6.10;;;;;;;30.32;48.55;100902.91;4149150;28;20034;-59
2022/07/06 07:12:32;;;;;;;7.25;5.43;;;;;;;30.32;48.56;100903.75;4149403;28;20115;-60
2022/07/06 07:14:39;;;;;;;7.28;5.85;;;;;;;30.32;48.51;100897.28;4149678;28;20050;-59
2022/07/06 07:16:40;;;;;;;7.80;5.70;;;;;;;30.31;48.52;100901.28;4149588;28;20080;-59
2022/07/06 07:18:42;;;;;;;6.43;5.32;;;;;;;30.29;48.49;100898.81;4149527;28;20428;-59
2022/07/06 07:20:46;;;;;;;7.47;5.68;;;;;;;30.28;48.92;100901.97;4149750;28;20104;-59
2022/07/06 07:22:47;;;;;;;7.60;5.43;;;;;;;30.30;48.69;100900.47;4148956;28;20045;-59
2022/07/06 07:24:48;;;;;;;5.82;4.43;;;;;;;30.31;48.67;100899.28;4150087;28;20276;-59
2022/07/06 07:26:53;;;;;;;6.90;5.20;;;;;;;30.27;48.68;100887.03;4150009;28;20123;-59
2022/07/06 07:28:54;;;;;;;5.90;5.18;;;;;;;30.31;48.28;100901.28;4149071;28;20120;-59
2022/07/06 07:30:55;;;;;;;6.65;4.60;;;;;;;30.30;48.07;100899.63;4149283;28;20073;-59
2022/07/06 07:32:57;;;;;;;6.13;5.50;;;;;;;30.29;48.48;100893.16;4149302;28;20041;-59
2022/07/06 07:35:02;;;;;;;8.60;5.97;;;;;;;30.29;48.75;100886.69;4149731;28;20018;-59
2022/07/06 07:37:03;;;;;;;8.25;5.10;;;;;;;30.29;48.40;100889.53;4149246;28;20041;-59
2022/07/06 07:39:05;;;;;;;7.53;4.80;;;;;;;30.28;48.36;100891.50;4148792;28;20034;-59
2022/07/06 07:41:06;;;;;;;5.82;4.88;;;;;;;30.28;48.48;100888.66;4147893;28;20042;-59
2022/07/06 07:43:08;;;;;;;7.75;5.22;;;;;;;30.27;48.48;100889.84;4148776;28;20933;-59
2022/07/06 07:45:10;;;;;;;6.45;5.07;;;;;;;30.28;48.39;100894.31;4148996;28;20362;-59
2022/07/06 07:47:14;;;;;;;7.47;5.50;;;;;;;30.28;48.45;100908.44;4149523;28;20080;-59
2022/07/06 07:49:15;;;;;;;7.28;5.50;;;;;;;30.28;48.43;100914.06;4149183;28;20041;-59
2022/07/06 07:51:18;;;;;;;5.88;4.75;;;;;;;30.29;48.70;100924.22;4148949;28;20042;-59
2022/07/06 07:53:22;;;;;;;7.07;5.13;;;;;;;30.28;48.47;100914.06;4148691;28;20490;-59
2022/07/06 07:55:23;;;;;;;7.93;5.80;;;;;;;30.28;48.96;100914.06;4149160;28;20112;-59
2022/07/06 07:57:25;;;;;;;5.82;5.00;;;;;;;30.28;48.69;100908.44;4146522;28;20038;-59
2022/07/06 07:59:26;;;;;;;6.93;5.30;;;;;;;30.24;48.58;100907.50;4148761;28;20385;-60
2022/07/06 08:01:28;;;;;;;5.82;4.97;;;;;;;30.28;48.54;100904.78;4147714;28;20037;-59
2022/07/06 08:03:29;;;;;;;6.90;5.40;;;;;;;30.28;49.03;100902.78;4145645;28;20041;-59
2022/07/06 08:05:33;;;;;;;6.30;4.97;;;;;;;30.27;49.06;100898.31;4148627;28;20037;-61
2022/07/06 08:07:34;;;;;;;5.95;5.32;;;;;;;30.28;48.73;100894.31;4148961;28;20560;-59
2022/07/06 08:09:36;;;;;;;6.05;5.38;;;;;;;30.28;48.73;100897.13;4147431;28;20038;-60
2022/07/06 08:11:37;;;;;;;6.63;5.53;;;;;;;30.27;48.70;100889.03;4148108;28;20481;-60
2022/07/06 08:13:39;;;;;;;7.10;5.88;;;;;;;30.23;49.13;100877.59;4148628;28;20037;-59
2022/07/06 08:15:45;;;;;;;7.25;6.25;;;;;;;30.27;49.12;100884.19;4148559;28;20046;-59
2022/07/06 08:17:47;;;;;;;5.78;5.18;;;;;;;30.28;49.28;100888.66;4148508;28;20037;-59
2022/07/06 08:19:51;;;;;;;7.70;5.68;;;;;;;30.26;49.09;100888.19;4147836;28;20104;-59
2022/07/06 08:21:52;;;;;;;8.47;5.17;;;;;;;30.27;49.01;100884.19;4148609;28;20096;-60
2022/07/06 08:23:54;;;;;;;7.13;5.47;;;;;;;30.26;49.22;100888.19;4148725;28;20743;-59
2022/07/06 08:25:56;;;;;;;7.10;5.75;;;;;;;30.26;48.90;100893.84;4148426;28;20408;-59
2022/07/06 08:27:58;;;;;;;5.80;4.72;;;;;;;30.24;48.49;100896.22;4148096;28;20096;-60
2022/07/06 08:30:01;;;;;;;7.18;5.80;;;;;;;30.25;48.99;100892.19;4148610;28;20084;-60
2022/07/06 08:32:03;;;;;;;6.07;5.35;;;;;;;30.25;48.90;100897.84;4148392;28;20410;-59
2022/07/06 08:34:04;;;;;;;6.07;5.32;;;;;;;30.25;48.91;100885.75;4148432;28;20088;-60
2022/07/06 08:36:06;;;;;;;6.07;5.38;;;;;;;30.24;48.87;100887.75;4148274;28;20464;-60
2022/07/06 08:38:07;;;;;;;6.43;5.78;;;;;;;30.25;49.48;100892.19;4148055;28;20092;-59
2022/07/06 08:40:11;;;;;;;6.10;5.28;;;;;;;30.24;49.25;100901.84;4148784;28;20030;-60
2022/07/06 08:42:16;;;;;;;5.68;5.07;;;;;;;30.25;49.29;100903.50;4148262;28;20100;-59
2022/07/06 08:44:18;;;;;;;6.32;5.20;;;;;;;30.19;49.48;100899.22;4148135;28;20042;-60
2022/07/06 08:46:20;;;;;;;8.52;6.07;;;;;;;30.25;49.36;100899.84;4148400;28;20436;-60
2022/07/06 08:48:33;;;;;;;5.18;4.68;;;;;;;30.24;48.78;100890.56;4147848;28;20112;-60
2022/07/06 08:50:34;;;;;;;5.90;5.30;;;;;;;30.25;49.10;100885.75;4148714;28;20025;-60
2022/07/06 08:52:38;;;;;;;6.40;5.80;;;;;;;30.23;48.88;100874.78;4147799;28;20104;-60
2022/07/06 08:54:40;;;;;;;5.40;4.90;;;;;;;30.23;48.67;100883.25;4147725;28;20332;-59
2022/07/06 08:56:42;;;;;;;6.20;5.13;;;;;;;30.22;48.24;100875.94;4147850;28;20042;-60
2022/07/06 08:58:46;;;;;;;6.72;5.30;;;;;;;30.19;48.31;100861.69;4147805;28;20092;-60
2022/07/06 09:00:47;;;;;;;6.13;5.53;;;;;;;30.21;47.98;100874.31;4148046;28;20037;-59
2022/07/06 09:02:50;;;;;;;5.78;5.18;;;;;;;30.16;48.26;100877.34;4148528;28;20092;-59
2022/07/06 09:04:55;;;;;;;5.97;5.38;;;;;;;30.21;48.57;100891.25;4148024;28;20038;-59
2022/07/06 09:06:57;;;;;;;6.03;5.43;;;;;;;30.20;48.68;100894.41;4148063;28;20116;-59
2022/07/06 09:08:59;;;;;;;5.63;5.05;;;;;;;30.20;48.54;100886.78;4147693;28;20045;-60
2022/07/06 09:11:01;;;;;;;5.95;5.35;;;;;;;30.20;48.04;100888.78;4147768;28;20041;-60
2022/07/06 09:13:09;;;;;;;5.47;4.85;;;;;;;30.14;48.11;100874.03;4148082;28;20046;-60
2022/07/06 09:15:10;;;;;;;6.45;5.40;;;;;;;30.18;48.56;100866.53;4147892;28;20042;-59
2022/07/06 09:17:12;;;;;;;5.80;5.20;;;;;;;30.19;48.34;100864.53;4148278;28;20096;-60
2022/07/06 09:19:15;;;;;;;5.43;4.93;;;;;;;30.19;48.22;100865.34;4147957;28;20029;-60
2022/07/06 09:21:26;;;;;;;6.10;5.32;;;;;;;30.17;48.80;100872.53;4148583;28;20046;-59
2022/07/06 09:23:32;;;;;;;5.63;4.93;;;;;;;30.17;48.91;100864.06;4147518;28;20108;-59
2022/07/06 09:25:35;;;;;;;6.03;5.22;;;;;;;30.16;48.87;100866.06;4147998;28;20037;-59
2022/07/06 09:27:39;;;;;;;5.97;5.20;;;;;;;30.18;48.67;100858.06;4148196;28;20080;-60